Time;durP1;ratioP1;P1;durP2;ratioP2;P2;SDS_P1;SDS_P2;PMS_P1;PMS_P2;Temp;Humidity;BMP_temperature;BMP_pressure;BME280_temperature;BME280_humidity;BME280_pressure;Samples;Min_cycle;Max_cycle;Signal;HPM_P1;HPM_P2
2022/03/02 00:00:21;;;;;;;;;47.50;39.00;;;;;10.62;48.24;102176.38;2394167;28;46327;-89
2022/03/02 00:01:31;;;;;;;;;46.75;36.75;;;;;10.63;48.75;102172.84;2392768;28;45380;-89
2022/03/02 00:02:44;;;;;;;;;47.50;37.75;;;;;10.63;48.76;102170.22;2403679;28;49298;-89
2022/03/02 00:03:54;;;;;;;;;50.25;38.50;;;;;10.64;49.32;102171.97;2406392;28;44642;-86
2022/03/02 00:05:06;;;;;;;;;50.25;39.25;;;;;10.64;49.35;102169.34;2392528;28;46963;-87
2022/03/02 00:06:16;;;;;;;;;43.50;36.00;;;;;10.64;48.67;102177.22;2393269;28;45274;-87
2022/03/02 00:07:26;;;;;;;;;44.50;34.75;;;;;10.65;48.86;102171.94;2393704;28;45254;-87
2022/03/02 00:08:37;;;;;;;;;47.25;39.25;;;;;10.63;48.25;102171.09;2394086;28;44677;-86
2022/03/02 00:09:47;;;;;;;;;48.50;40.00;;;;;10.62;48.68;102171.13;2393713;28;46533;-85
2022/03/02 00:10:58;;;;;;;;;49.00;37.00;;;;;10.62;48.38;102171.13;2393145;28;45343;-85
2022/03/02 00:12:08;;;;;;;;;47.75;38.25;;;;;10.62;48.18;102168.47;2393086;28;45473;-85
2022/03/02 00:13:18;;;;;;;;;50.00;38.25;;;;;10.65;48.35;102171.06;2393422;28;45408;-87
2022/03/02 00:14:29;;;;;;;;;47.25;37.00;;;;;10.62;47.95;102168.47;2393729;28;45376;-86
2022/03/02 00:15:39;;;;;;;;;47.25;37.50;;;;;10.60;48.94;102159.72;2393877;28;45333;-87
2022/03/02 00:16:50;;;;;;;;;43.50;35.00;;;;;10.60;48.79;102164.97;2393951;28;46563;-87
2022/03/02 00:18:01;;;;;;;;;45.50;37.25;;;;;10.60;48.90;102159.72;2393887;28;45433;-85
2022/03/02 00:19:11;;;;;;;;;46.25;36.00;;;;;10.59;48.58;102158.88;2393751;28;45368;-84
2022/03/02 00:20:22;;;;;;;;;52.00;40.00;;;;;10.55;48.42;102152.75;2393238;28;45715;-85
2022/03/02 00:21:32;;;;;;;;;43.00;35.50;;;;;10.55;48.77;102155.38;2393719;28;46264;-85
2022/03/02 00:22:43;;;;;;;;;50.25;38.75;;;;;10.56;48.64;102159.78;2393935;28;44679;-85
2022/03/02 00:23:53;;;;;;;;;44.50;36.00;;;;;10.55;48.84;102154.50;2393807;28;46428;-85
2022/03/02 00:25:04;;;;;;;;;50.50;39.00;;;;;10.53;49.23;102148.41;2393091;28;44604;-84
2022/03/02 00:26:14;;;;;;;;;50.00;37.75;;;;;10.52;48.83;102147.50;2392866;28;45171;-86
2022/03/02 00:27:25;;;;;;;;;50.00;39.50;;;;;10.49;49.09;102142.28;2395357;28;45230;-90
2022/03/02 00:28:36;;;;;;;;;45.25;36.75;;;;;10.49;49.26;102146.66;2396274;28;47040;-90
2022/03/02 00:29:46;;;;;;;;;47.75;37.00;;;;;10.50;49.29;102149.25;2400082;28;44676;-89
2022/03/02 00:30:57;;;;;;;;;49.75;39.50;;;;;10.46;49.18;102142.31;2402931;28;45551;-91
2022/03/02 00:32:07;;;;;;;;;47.75;36.00;;;;;10.46;49.55;102147.56;2393588;28;45218;-90
2022/03/02 00:33:18;;;;;;;;;46.75;37.75;;;;;10.45;49.46;102143.19;2386088;28;47745;-90
2022/03/02 00:34:28;;;;;;;;;48.50;40.25;;;;;10.43;49.00;102144.94;2386780;28;45529;-87
2022/03/02 00:35:39;;;;;;;;;47.50;36.00;;;;;10.42;48.86;102143.22;2385962;28;46267;-91
2022/03/02 00:36:49;;;;;;;;;50.25;37.25;;;;;10.41;49.50;102138.84;2393215;28;45443;-84
2022/03/02 00:38:00;;;;;;;;;50.75;40.00;;;;;10.40;49.00;102144.97;2393600;28;45411;-84
2022/03/02 00:39:10;;;;;;;;;50.25;38.75;;;;;10.37;49.19;102139.78;2393836;28;44596;-84
2022/03/02 00:40:21;;;;;;;;;52.00;41.75;;;;;10.35;49.63;102145.03;2393538;28;45305;-84
2022/03/02 00:41:31;;;;;;;;;50.75;39.00;;;;;10.31;49.21;102138.94;2392927;28;44704;-84
2022/03/02 00:42:43;;;;;;;;;48.00;37.00;;;;;10.30;49.52;102139.81;2392962;28;45269;-84
2022/03/02 00:43:54;;;;;;;;;48.00;38.25;;;;;10.32;49.63;102139.81;2393563;28;44786;-84
2022/03/02 00:45:05;;;;;;;;;49.75;33.75;;;;;10.27;49.17;102134.59;2393618;28;45309;-84
2022/03/02 00:46:16;;;;;;;;;52.50;42.00;;;;;10.31;48.99;102143.31;2393778;28;45224;-84
2022/03/02 00:47:26;;;;;;;;;50.25;38.25;;;;;10.27;49.50;102133.72;2392585;28;48248;-84
2022/03/02 00:48:37;;;;;;;;;52.25;41.25;;;;;10.27;49.40;102137.22;2392965;28;45294;-85
2022/03/02 00:49:48;;;;;;;;;51.25;39.25;;;;;10.26;49.50;102140.72;2393197;28;46306;-85
2022/03/02 00:50:58;;;;;;;;;51.75;41.75;;;;;10.26;49.20;102139.84;2393599;28;45195;-85
2022/03/02 00:52:11;;;;;;;;;51.50;41.50;;;;;10.26;48.83;102140.72;2393459;28;45374;-85
2022/03/02 00:53:21;;;;;;;;;54.75;44.75;;;;;10.23;48.77;102135.50;2393626;28;45271;-85
2022/03/02 00:54:32;;;;;;;;;52.50;39.25;;;;;10.22;48.99;102133.78;2393532;28;47488;-85
2022/03/02 00:55:42;;;;;;;;;51.75;39.75;;;;;10.22;49.46;102128.50;2393513;28;45341;-85
2022/03/02 00:56:53;;;;;;;;;49.75;39.50;;;;;10.23;49.50;102133.75;2396709;28;45350;-83
2022/03/02 00:58:04;;;;;;;;;48.25;38.75;;;;;10.21;49.42;102126.75;2403152;28;45199;-82
2022/03/02 00:59:15;;;;;;;;;54.25;40.75;;;;;10.21;49.84;102130.25;2393281;28;45385;-83
2022/03/02 01:00:26;;;;;;;;;50.25;39.00;;;;;10.20;49.57;102130.25;2402029;28;44685;-83
2022/03/02 01:01:36;;;;;;;;;52.25;39.25;;;;;10.20;49.36;102125.00;2399791;28;46303;-85
2022/03/02 01:02:46;;;;;;;;;48.00;39.00;;;;;10.19;49.45;102133.78;2392812;28;45232;-83
2022/03/02 01:03:57;;;;;;;;;48.00;40.25;;;;;10.18;49.68;102126.78;2392989;28;45363;-83
2022/03/02 01:05:07;;;;;;;;;50.75;39.25;;;;;10.18;50.23;102127.66;2393195;28;45209;-83
2022/03/02 01:06:18;;;;;;;;;49.25;39.25;;;;;10.16;50.13;102134.69;2393538;28;45384;-83
2022/03/02 01:07:29;;;;;;;;;52.50;41.50;;;;;10.14;50.06;102125.94;2393462;28;44731;-83
2022/03/02 01:08:39;;;;;;;;;51.25;40.25;;;;;10.13;50.06;102130.31;2393492;28;45587;-83
2022/03/02 01:09:49;;;;;;;;;47.25;39.00;;;;;10.14;50.69;102133.84;2393661;28;45455;-83
2022/03/02 01:11:00;;;;;;;;;50.50;41.50;;;;;10.14;50.15;102133.84;2393201;28;45481;-83
2022/03/02 01:12:11;;;;;;;;;54.00;42.00;;;;;10.11;50.37;102131.22;2393383;28;44662;-83
2022/03/02 01:13:21;;;;;;;;;54.25;40.25;;;;;10.09;50.54;102130.38;2392927;28;45336;-83
2022/03/02 01:14:31;;;;;;;;;54.00;42.75;;;;;10.11;50.83;102131.22;2393276;28;45287;-83
2022/03/02 01:15:42;;;;;;;;;51.00;41.00;;;;;10.05;49.99;102126.88;2393160;28;45362;-83
2022/03/02 01:16:52;;;;;;;;;53.25;41.50;;;;;10.04;50.10;102124.28;2393225;28;45442;-83
2022/03/02 01:18:03;;;;;;;;;51.50;41.75;;;;;10.02;50.57;102119.91;2392888;28;45440;-83
2022/03/02 01:19:13;;;;;;;;;51.00;39.75;;;;;10.03;50.34;102123.41;2393430;28;45410;-83
2022/03/02 01:20:24;;;;;;;;;53.00;41.50;;;;;10.00;50.62;102124.28;2392808;28;45473;-83
2022/03/02 01:21:34;;;;;;;;;52.50;42.00;;;;;9.99;49.99;102125.19;2393367;28;45239;-83
2022/03/02 01:22:44;;;;;;;;;56.25;43.25;;;;;9.97;50.12;102121.72;2393227;28;45974;-82
2022/03/02 01:23:56;;;;;;;;;51.00;40.25;;;;;9.95;50.81;102117.38;2393275;28;45185;-82
2022/03/02 01:25:09;;;;;;;;;53.75;41.75;;;;;9.94;50.05;102120.84;2393259;28;45493;-82
2022/03/02 01:26:21;;;;;;;;;52.25;40.00;;;;;9.93;50.96;102116.47;2393440;28;44695;-82
2022/03/02 01:27:31;;;;;;;;;51.25;41.50;;;;;9.92;50.88;102120.00;2393304;28;45411;-82
2022/03/02 01:28:42;;;;;;;;;49.75;39.75;;;;;9.90;50.87;102120.03;2393339;28;45353;-82
2022/03/02 01:29:52;;;;;;;;;50.00;41.00;;;;;9.87;50.54;102114.78;2393208;28;46153;-82
2022/03/02 01:31:03;;;;;;;;;50.50;39.75;;;;;9.88;51.39;102114.75;2392687;28;45589;-89
2022/03/02 01:32:14;;;;;;;;;54.50;40.75;;;;;9.85;50.43;102109.53;2392930;28;46442;-89
2022/03/02 01:33:24;;;;;;;;;53.00;41.00;;;;;9.88;50.69;102117.38;2392724;28;45275;-88
2022/03/02 01:34:36;;;;;;;;;46.00;39.25;;;;;9.84;50.84;102107.81;2385380;28;47291;-87
2022/03/02 01:35:46;;;;;;;;;51.75;41.00;;;;;9.81;51.06;102113.06;2392699;28;45178;-87
2022/03/02 01:36:57;;;;;;;;;55.25;40.75;;;;;9.81;51.07;102110.44;2392447;28;47366;-86
2022/03/02 01:38:07;;;;;;;;;48.75;40.75;;;;;9.83;51.38;102121.81;2393052;28;44600;-87
2022/03/02 01:39:18;;;;;;;;;51.75;41.50;;;;;9.81;51.31;102113.06;2393287;28;46354;-82
2022/03/02 01:40:28;;;;;;;;;48.75;40.25;;;;;9.81;50.96;102117.44;2393134;28;45224;-81
2022/03/02 01:41:39;;;;;;;;;51.50;42.00;;;;;9.76;51.15;102106.97;2393252;28;45327;-79
2022/03/02 01:42:49;;;;;;;;;48.25;40.00;;;;;9.78;50.71;102110.47;2393379;28;45279;-86
2022/03/02 01:44:00;;;;;;;;;52.00;41.75;;;;;9.76;50.83;102106.97;2393115;28;46271;-85
2022/03/02 01:45:12;;;;;;;;;51.00;41.75;;;;;9.76;51.14;102101.72;2393285;28;45205;-85
2022/03/02 01:46:23;;;;;;;;;55.50;39.75;;;;;9.74;51.14;102106.13;2392792;28;47067;-86
2022/03/02 01:47:33;;;;;;;;;50.50;39.00;;;;;9.73;51.47;102102.63;2393332;28;45216;-85
2022/03/02 01:48:44;;;;;;;;;52.25;41.25;;;;;9.74;50.89;102106.13;2389742;28;47909;-85
2022/03/02 01:49:55;;;;;;;;;48.50;40.50;;;;;9.71;50.89;102095.63;2392503;28;45234;-85
2022/03/02 01:51:06;;;;;;;;;50.00;41.50;;;;;9.72;50.96;102107.91;2393254;28;45235;-85
2022/03/02 01:52:16;;;;;;;;;51.00;39.75;;;;;9.67;51.45;102100.94;2393341;28;44642;-85
2022/03/02 01:53:27;;;;;;;;;50.75;40.50;;;;;9.67;51.83;102102.69;2393085;28;46417;-85
2022/03/02 01:54:37;;;;;;;;;49.25;40.25;;;;;9.67;50.94;102095.69;2392317;28;45224;-85
2022/03/02 01:55:47;;;;;;;;;53.25;42.00;;;;;9.66;51.25;102099.19;2392652;28;45387;-90
2022/03/02 01:56:58;;;;;;;;;45.25;39.00;;;;;9.65;51.36;102093.94;2393449;28;45261;-89
2022/03/02 01:58:09;;;;;;;;;58.00;42.50;;;;;9.64;51.25;102097.44;2392336;28;47873;-88
2022/03/02 01:59:19;;;;;;;;;53.50;41.75;;;;;9.62;51.69;102092.22;2392757;28;45440;-89
2022/03/02 02:00:31;;;;;;;;;54.00;41.25;;;;;9.64;50.63;102097.44;2392894;28;45381;-89
2022/03/02 02:01:42;;;;;;;;;52.75;41.50;;;;;9.61;51.38;102093.09;2393485;28;45421;-88
2022/03/02 02:02:52;;;;;;;;;53.75;39.75;;;;;9.60;51.49;102087.84;2392790;28;45404;-89
2022/03/02 02:04:04;;;;;;;;;52.25;38.75;;;;;9.59;51.74;102089.59;2392770;28;45160;-87
2022/03/02 02:05:15;;;;;;;;;52.75;39.50;;;;;9.61;51.62;102094.81;2383029;28;45663;-89
2022/03/02 02:06:25;;;;;;;;;55.00;40.75;;;;;9.61;50.76;102090.47;2388842;28;45278;-88
2022/03/02 02:07:36;;;;;;;;;45.25;36.25;;;;;9.61;50.82;102086.94;2392448;28;45250;-87
2022/03/02 02:08:46;;;;;;;;;52.75;40.75;;;;;9.62;51.59;102089.59;2392755;28;45232;-89
2022/03/02 02:09:58;;;;;;;;;51.00;40.75;;;;;9.61;51.25;102086.94;2392754;28;45230;-88
2022/03/02 02:11:10;;;;;;;;;51.00;40.50;;;;;9.62;51.43;102086.97;2392852;28;45535;-88
2022/03/02 02:12:20;;;;;;;;;50.25;39.50;;;;;9.64;51.49;102084.31;2392980;28;46096;-89
2022/03/02 02:13:32;;;;;;;;;51.00;42.75;;;;;9.61;51.59;102079.97;2393032;28;45177;-88
2022/03/02 02:14:42;;;;;;;;;49.50;40.00;;;;;9.64;51.58;102079.94;2411420;28;47135;-87
2022/03/02 02:15:54;;;;;;;;;53.50;41.00;;;;;9.63;51.41;102075.56;2406273;28;44745;-88
2022/03/02 02:17:04;;;;;;;;;48.00;39.50;;;;;9.61;51.42;102074.72;2401629;28;47250;-88
2022/03/02 02:18:14;;;;;;;;;51.00;40.50;;;;;9.62;51.66;102071.22;2392065;28;45436;-88
2022/03/02 02:19:26;;;;;;;;;51.75;42.25;;;;;9.65;51.46;102084.31;2404407;28;47655;-90
2022/03/02 02:20:38;;;;;;;;;51.50;41.50;;;;;9.65;51.08;102070.31;2407784;28;45411;-89
2022/03/02 02:21:49;;;;;;;;;53.50;42.00;;;;;9.63;52.09;102067.69;2392155;28;48420;-89
2022/03/02 02:22:59;;;;;;;;;52.00;40.00;;;;;9.60;51.74;102069.47;2385770;28;45274;-88
2022/03/02 02:24:10;;;;;;;;;53.75;42.50;;;;;9.60;51.83;102067.72;2382685;28;47165;-87
2022/03/02 02:25:20;;;;;;;;;51.00;39.50;;;;;9.60;52.33;102066.84;2387903;28;45310;-88
2022/03/02 02:26:30;;;;;;;;;52.25;42.00;;;;;9.59;51.23;102060.72;2392713;28;45421;-88
2022/03/02 02:27:44;;;;;;;;;51.75;40.00;;;;;9.55;51.98;102059.91;2389938;28;45377;-88
2022/03/02 02:28:55;;;;;;;;;49.50;39.75;;;;;9.56;52.08;102063.38;2399201;28;46921;-84
2022/03/02 02:30:06;;;;;;;;;51.75;41.50;;;;;9.56;52.12;102055.50;2398688;28;45491;-82
2022/03/02 02:31:16;;;;;;;;;50.50;40.00;;;;;9.55;51.56;102059.03;2394700;28;46453;-82
2022/03/02 02:32:27;;;;;;;;;48.50;39.00;;;;;9.56;51.91;102060.75;2394609;28;45273;-82
2022/03/02 02:33:38;;;;;;;;;53.50;43.25;;;;;9.54;51.69;102055.50;2394669;28;46367;-87
2022/03/02 02:34:48;;;;;;;;;54.00;41.25;;;;;9.54;51.71;102055.50;2394235;28;45475;-87
2022/03/02 02:35:59;;;;;;;;;56.00;40.50;;;;;9.56;51.95;102055.50;2394535;28;45353;-87
2022/03/02 02:37:10;;;;;;;;;47.25;39.25;;;;;9.55;51.85;102052.03;2394563;28;44612;-86
2022/03/02 02:38:21;;;;;;;;;51.25;41.75;;;;;9.53;51.76;102056.38;2393774;28;48203;-87
2022/03/02 02:39:32;;;;;;;;;49.25;39.50;;;;;9.52;51.77;102043.28;2393868;28;45334;-87
2022/03/02 02:40:42;;;;;;;;;56.50;41.50;;;;;9.54;51.63;102052.00;2394586;28;46181;-87
2022/03/02 02:41:53;;;;;;;;;50.50;39.50;;;;;9.52;52.32;102048.53;2394552;28;45175;-86
2022/03/02 02:43:05;;;;;;;;;54.75;40.00;;;;;9.49;51.72;102040.66;2394184;28;48522;-83
2022/03/02 02:44:16;;;;;;;;;53.75;40.75;;;;;9.49;52.10;102048.53;2394712;28;45206;-83
2022/03/02 02:45:26;;;;;;;;;55.00;42.75;;;;;9.49;52.28;102038.94;2394395;28;46413;-81
2022/03/02 02:46:43;;;;;;;;;52.75;42.75;;;;;9.48;51.45;102039.81;2394669;28;46674;-82
2022/03/02 02:47:55;;;;;;;;;50.00;39.75;;;;;9.50;51.78;102042.44;2394513;28;46164;-81
2022/03/02 02:49:05;;;;;;;;;53.75;40.75;;;;;9.45;52.38;102032.84;2394620;28;45278;-80
2022/03/02 02:50:20;;;;;;;;;51.25;39.50;;;;;9.44;51.72;102033.72;2393956;28;46249;-80
2022/03/02 02:51:31;;;;;;;;;53.25;42.00;;;;;9.43;52.43;102029.34;2394600;28;44750;-80
2022/03/02 02:52:41;;;;;;;;;51.25;39.50;;;;;9.42;52.02;102022.34;2394565;28;45360;-82
2022/03/02 02:53:51;;;;;;;;;55.00;41.75;;;;;9.45;52.51;102027.59;2393435;28;45332;-82
2022/03/02 02:55:02;;;;;;;;;48.00;39.75;;;;;9.42;52.18;102022.34;2393870;28;45462;-82
2022/03/02 02:56:13;;;;;;;;;57.50;44.25;;;;;9.44;52.09;102027.59;2393711;28;45299;-82
2022/03/02 02:57:23;;;;;;;;;48.00;39.50;;;;;9.44;51.60;102027.59;2393678;28;45367;-81
2022/03/02 02:58:34;;;;;;;;;50.75;41.75;;;;;9.41;51.85;102019.72;2394521;28;45210;-81
2022/03/02 02:59:44;;;;;;;;;53.75;42.50;;;;;9.42;52.35;102022.34;2393121;28;46968;-82
2022/03/02 03:00:55;;;;;;;;;52.50;43.00;;;;;9.41;52.40;102019.72;2393791;28;44789;-81
2022/03/02 03:02:05;;;;;;;;;51.00;41.00;;;;;9.37;52.20;102011.03;2393449;28;46233;-81
2022/03/02 03:03:17;;;;;;;;;53.00;41.00;;;;;9.38;52.31;102014.53;2393555;28;45400;-81
2022/03/02 03:04:27;;;;;;;;;50.75;39.25;;;;;9.38;52.88;102018.03;2393950;28;45657;-81
2022/03/02 03:05:38;;;;;;;;;54.50;42.50;;;;;9.35;52.42;102010.16;2394382;28;45215;-81
2022/03/02 03:06:48;;;;;;;;;54.75;41.75;;;;;9.34;52.75;102014.53;2394337;28;45342;-82
2022/03/02 03:08:01;;;;;;;;;54.00;41.25;;;;;9.33;52.42;102012.78;2394256;28;45306;-82
2022/03/02 03:09:12;;;;;;;;;51.25;40.75;;;;;9.34;52.19;102013.66;2394274;28;46346;-82
2022/03/02 03:10:25;;;;;;;;;52.50;42.75;;;;;9.31;52.46;102008.47;2394415;28;45234;-82
2022/03/02 03:11:39;;;;;;;;;50.25;41.75;;;;;9.32;52.73;102012.81;2394050;28;46503;-85
2022/03/02 03:12:50;;;;;;;;;54.00;41.00;;;;;9.29;52.11;102015.44;2393447;28;45353;-85
2022/03/02 03:14:07;;;;;;;;;51.50;41.75;;;;;9.25;52.06;102009.38;2393566;28;46459;-85
2022/03/02 03:15:19;;;;;;;;;55.00;41.00;;;;;9.24;52.83;102004.97;2392945;28;45290;-85
2022/03/02 03:16:29;;;;;;;;;53.75;41.25;;;;;9.23;51.86;102005.88;2396392;28;47232;-86
2022/03/02 03:17:40;;;;;;;;;56.25;41.25;;;;;9.24;52.29;102002.34;2395003;28;45389;-86
2022/03/02 03:18:51;;;;;;;;;53.75;42.00;;;;;9.20;52.71;101998.91;2393978;28;45471;-86
2022/03/02 03:20:03;;;;;;;;;51.75;41.75;;;;;9.19;52.19;102002.38;2394016;28;45243;-87
2022/03/02 03:21:14;;;;;;;;;49.50;41.25;;;;;9.19;52.70;102005.00;2394202;28;47740;-87
2022/03/02 03:22:24;;;;;;;;;54.00;42.25;;;;;9.17;52.16;102005.91;2393555;28;45400;-87
2022/03/02 03:23:34;;;;;;;;;53.50;43.75;;;;;9.19;52.39;102012.00;2393665;28;46293;-86
2022/03/02 03:24:45;;;;;;;;;50.25;40.25;;;;;9.17;52.43;102009.41;2394348;28;45234;-86
2022/03/02 03:25:55;;;;;;;;;51.25;41.50;;;;;9.16;52.31;102010.28;2394276;28;46296;-86
2022/03/02 03:27:06;;;;;;;;;55.00;42.50;;;;;9.15;52.24;102002.44;2394277;28;44591;-86
2022/03/02 03:28:16;;;;;;;;;54.00;43.00;;;;;9.15;53.10;102002.44;2393316;28;48292;-91
2022/03/02 03:29:26;;;;;;;;;57.00;45.00;;;;;9.13;52.53;102005.06;2388387;28;44569;-91
2022/03/02 03:30:37;;;;;;;;;51.25;41.00;;;;;9.14;52.54;102003.28;2395917;28;48161;-90
2022/03/02 03:31:47;;;;;;;;;54.75;40.25;;;;;9.12;52.86;102003.31;2395383;28;45234;-91
2022/03/02 03:32:58;;;;;;;;;58.50;42.25;;;;;9.12;53.16;102005.94;2386590;28;47972;-88
2022/03/02 03:34:09;;;;;;;;;51.75;40.25;;;;;9.12;52.94;102005.94;2393953;28;45444;-88
2022/03/02 03:35:21;;;;;;;;;56.00;43.25;;;;;9.12;53.09;102005.94;2393124;28;47059;-88
2022/03/02 03:36:31;;;;;;;;;52.25;41.00;;;;;9.11;53.44;102004.22;2386577;28;44818;-87
2022/03/02 03:37:42;;;;;;;;;52.50;42.00;;;;;9.07;53.44;102000.72;2395844;28;47221;-86
2022/03/02 03:38:53;;;;;;;;;50.25;40.00;;;;;9.09;53.13;102003.31;2393413;28;44740;-86
2022/03/02 03:40:05;;;;;;;;;55.00;43.25;;;;;9.09;53.31;102003.31;2393027;28;45270;-87
2022/03/02 03:41:15;;;;;;;;;50.25;40.75;;;;;9.07;52.66;102002.47;2393909;28;44759;-83
2022/03/02 03:42:26;;;;;;;;;54.25;41.00;;;;;9.06;53.10;102000.75;2394140;28;45332;-83
2022/03/02 03:43:36;;;;;;;;;56.75;44.75;;;;;9.08;53.25;102001.59;2394045;28;45229;-82
2022/03/02 03:44:47;;;;;;;;;57.50;43.50;;;;;9.07;53.01;102000.72;2393120;28;46483;-82
2022/03/02 03:45:57;;;;;;;;;56.00;41.75;;;;;9.04;53.01;102002.50;2393714;28;45234;-82
2022/03/02 03:47:08;;;;;;;;;55.00;41.25;;;;;9.05;52.76;101997.25;2392594;28;47886;-82
2022/03/02 03:48:19;;;;;;;;;52.75;41.75;;;;;9.04;53.55;101994.66;2393233;28;45417;-83
2022/03/02 03:49:29;;;;;;;;;51.75;42.25;;;;;9.03;52.95;101991.16;2392743;28;46357;-84
2022/03/02 03:50:39;;;;;;;;;51.50;41.25;;;;;9.03;53.23;101990.25;2393466;28;45350;-85
2022/03/02 03:51:50;;;;;;;;;55.00;42.00;;;;;9.05;53.49;101996.38;2393989;28;46157;-85
2022/03/02 03:53:00;;;;;;;;;57.50;43.25;;;;;9.04;52.91;101990.25;2393990;28;45467;-83
2022/03/02 03:54:11;;;;;;;;;51.75;40.50;;;;;9.04;53.34;101990.25;2393872;28;46485;-83
2022/03/02 03:55:21;;;;;;;;;50.25;40.25;;;;;9.05;52.63;101985.88;2393863;28;45416;-85
2022/03/02 03:56:32;;;;;;;;;49.25;41.50;;;;;9.05;52.14;101992.00;2393984;28;45462;-87
2022/03/02 03:57:43;;;;;;;;;55.00;42.25;;;;;9.06;52.38;101993.72;2393200;28;45238;-86
2022/03/02 03:58:54;;;;;;;;;51.00;39.75;;;;;9.04;52.13;101990.25;2386465;28;47178;-86
2022/03/02 04:00:11;;;;;;;;;50.75;40.00;;;;;9.05;52.50;101985.88;2386603;28;45320;-85
2022/03/02 04:01:22;;;;;;;;;54.75;42.50;;;;;9.06;52.52;101987.63;2393516;28;47908;-83
2022/03/02 04:02:32;;;;;;;;;55.50;42.00;;;;;9.09;52.14;101987.59;2393727;28;45135;-88
2022/03/02 04:03:43;;;;;;;;;53.50;41.75;;;;;9.11;51.81;101988.47;2392654;28;46965;-88
2022/03/02 04:04:53;;;;;;;;;54.25;42.00;;;;;9.10;51.85;101989.34;2386491;28;45325;-87
2022/03/02 04:06:04;;;;;;;;;52.75;40.25;;;;;9.14;51.03;101988.44;2393294;28;45348;-81
2022/03/02 04:07:14;;;;;;;;;55.00;40.75;;;;;9.13;51.69;101986.72;2394016;28;45255;-80
2022/03/02 04:08:25;;;;;;;;;51.25;40.50;;;;;9.16;52.17;101986.66;2393695;28;46267;-80
2022/03/02 04:09:35;;;;;;;;;57.00;42.50;;;;;9.19;51.96;101988.41;2394116;28;44642;-80
2022/03/02 04:10:46;;;;;;;;;51.25;40.75;;;;;9.20;52.25;101990.16;2392886;28;48614;-80
2022/03/02 04:11:57;;;;;;;;;50.50;42.00;;;;;9.25;52.34;101990.13;2393220;28;45171;-80
2022/03/02 04:13:07;;;;;;;;;43.75;36.75;;;;;9.25;52.66;101992.75;2392903;28;46958;-81
2022/03/02 04:14:18;;;;;;;;;57.25;43.00;;;;;9.26;51.69;101989.25;2392723;28;45472;-82
2022/03/02 04:15:28;;;;;;;;;54.50;42.50;;;;;9.25;51.70;101987.50;2393786;28;45354;-81
2022/03/02 04:16:39;;;;;;;;;49.75;42.00;;;;;9.27;51.80;101980.47;2393899;28;45362;-81
2022/03/02 04:17:49;;;;;;;;;50.00;40.25;;;;;9.27;51.87;101981.34;2393779;28;45359;-81
2022/03/02 04:18:59;;;;;;;;;53.00;42.25;;;;;9.29;52.33;101978.72;2393346;28;45366;-81
2022/03/02 04:20:10;;;;;;;;;52.75;40.75;;;;;9.30;52.11;101980.47;2393417;28;45359;-81
2022/03/02 04:21:21;;;;;;;;;54.25;40.00;;;;;9.30;51.55;101977.84;2393820;28;45242;-81
2022/03/02 04:22:32;;;;;;;;;51.75;41.75;;;;;9.31;51.46;101977.81;2392947;28;47198;-81
2022/03/02 04:23:42;;;;;;;;;49.75;40.50;;;;;9.31;51.12;101976.97;2393309;28;45345;-81
2022/03/02 04:24:53;;;;;;;;;53.00;39.50;;;;;9.32;52.01;101978.69;2393765;28;46375;-80
2022/03/02 04:26:03;;;;;;;;;51.75;42.00;;;;;9.32;51.29;101971.69;2392940;28;45257;-81
2022/03/02 04:27:14;;;;;;;;;46.50;39.25;;;;;9.35;51.84;101976.06;2393219;28;46467;-82
2022/03/02 04:28:24;;;;;;;;;50.25;40.25;;;;;9.38;51.84;101975.16;2393680;28;45199;-81
2022/03/02 04:29:35;;;;;;;;;51.00;40.75;;;;;9.39;51.42;101976.88;2393785;28;46334;-84
2022/03/02 04:30:45;;;;;;;;;50.00;41.25;;;;;9.41;51.54;101977.75;2393860;28;44601;-85
2022/03/02 04:31:56;;;;;;;;;49.75;40.25;;;;;9.40;50.69;101970.78;2393682;28;45626;-82
2022/03/02 04:33:07;;;;;;;;;58.75;42.25;;;;;9.40;51.13;101971.66;2393973;28;45176;-80
2022/03/02 04:34:17;;;;;;;;;55.75;43.00;;;;;9.38;50.67;101965.53;2393477;28;45386;-82
2022/03/02 04:35:27;;;;;;;;;50.75;37.25;;;;;9.38;50.93;101962.91;2393376;28;45385;-83
2022/03/02 04:36:38;;;;;;;;;53.75;41.25;;;;;9.38;50.87;101959.41;2393541;28;45342;-87
2022/03/02 04:37:48;;;;;;;;;55.75;44.00;;;;;9.38;50.98;101962.03;2393949;28;44791;-87
2022/03/02 04:38:58;;;;;;;;;51.25;40.75;;;;;9.41;50.43;101959.38;2392956;28;48187;-87
2022/03/02 04:40:11;;;;;;;;;50.50;40.25;;;;;9.42;50.55;101962.00;2395600;28;44753;-87
2022/03/02 04:41:22;;;;;;;;;54.00;42.25;;;;;9.44;51.32;101959.34;2392914;28;47018;-87
2022/03/02 04:42:33;;;;;;;;;51.75;40.25;;;;;9.45;50.48;101959.34;2393019;28;45397;-87
2022/03/02 04:43:45;;;;;;;;;51.25;41.00;;;;;9.48;50.33;101957.59;2392771;28;47021;-87
2022/03/02 04:44:55;;;;;;;;;51.25;38.75;;;;;9.48;50.67;101958.47;2393381;28;45203;-87
2022/03/02 04:46:06;;;;;;;;;56.25;42.75;;;;;9.47;49.80;101954.09;2393260;28;45274;-88
2022/03/02 04:47:16;;;;;;;;;53.00;43.50;;;;;9.45;49.89;101954.09;2392972;28;45244;-85
2022/03/02 04:48:27;;;;;;;;;50.50;40.25;;;;;9.42;49.52;101955.88;2392728;28;45398;-84
2022/03/02 04:49:37;;;;;;;;;51.50;40.25;;;;;9.42;49.91;101959.38;2393513;28;44640;-85
2022/03/02 04:50:47;;;;;;;;;53.75;41.00;;;;;9.42;49.94;101948.00;2393227;28;45254;-84
2022/03/02 04:51:58;;;;;;;;;48.50;39.25;;;;;9.42;50.05;101955.88;2392197;28;45399;-83
2022/03/02 04:53:08;;;;;;;;;53.50;40.50;;;;;9.42;50.07;101948.88;2404469;28;47199;-83
2022/03/02 04:55:49;;;;;;;;;52.25;41.75;;;;;9.42;50.29;101948.88;2393425;28;45294;-84
2022/03/02 04:57:00;;;;;;;;;48.25;39.00;;;;;9.45;50.29;101954.09;2393630;28;44739;-84
2022/03/02 04:58:12;;;;;;;;;52.50;42.75;;;;;9.42;49.55;101946.25;2393244;28;46493;-84
2022/03/02 04:59:22;;;;;;;;;48.25;39.25;;;;;9.43;50.17;101949.75;2393316;28;45419;-84
2022/03/02 05:00:35;;;;;;;;;50.75;41.00;;;;;9.45;50.14;101947.97;2392706;28;47034;-81
2022/03/02 05:01:46;;;;;;;;;47.75;39.00;;;;;9.47;50.44;101948.84;2392995;28;45323;-83
2022/03/02 05:02:58;;;;;;;;;47.00;38.00;;;;;9.50;50.06;101950.56;2393431;28;46313;-83
2022/03/02 05:04:08;;;;;;;;;49.00;39.75;;;;;9.48;50.01;101944.47;2393611;28;45214;-83
2022/03/02 05:05:21;;;;;;;;;53.50;42.75;;;;;9.50;50.54;101945.31;2393128;28;46166;-84
2022/03/02 05:06:31;;;;;;;;;51.25;41.00;;;;;9.55;50.78;101948.78;2392734;28;45282;-88
2022/03/02 05:07:43;;;;;;;;;50.00;40.50;;;;;9.54;50.63;101947.03;2392619;28;46022;-88
2022/03/02 05:08:54;;;;;;;;;49.25;38.75;;;;;9.54;49.88;101945.28;2393672;28;45270;-88
2022/03/02 05:10:05;;;;;;;;;50.75;39.00;;;;;9.58;50.77;101940.84;2393322;28;45316;-88
2022/03/02 05:11:16;;;;;;;;;55.00;41.75;;;;;9.58;49.73;101940.84;2392398;28;45427;-88
2022/03/02 05:12:26;;;;;;;;;50.00;39.75;;;;;9.56;49.97;101940.88;2392633;28;45287;-88
2022/03/02 05:13:37;;;;;;;;;49.50;40.50;;;;;9.57;49.42;101940.00;2393299;28;45172;-86
2022/03/02 05:14:49;;;;;;;;;49.50;40.50;;;;;9.57;49.85;101941.75;2392587;28;47998;-88
2022/03/02 05:15:59;;;;;;;;;50.50;41.50;;;;;9.54;49.30;101932.16;2392920;28;44775;-89
2022/03/02 05:17:10;;;;;;;;;47.75;39.50;;;;;9.55;49.90;101936.53;2392511;28;47595;-88
2022/03/02 05:18:20;;;;;;;;;49.00;39.50;;;;;9.58;49.75;101935.59;2392847;28;45403;-87
2022/03/02 05:19:31;;;;;;;;;49.75;40.50;;;;;9.57;49.53;101931.25;2393051;28;46447;-88
2022/03/02 05:20:41;;;;;;;;;52.00;40.75;;;;;9.57;50.44;101933.88;2393457;28;45423;-88
2022/03/02 05:21:51;;;;;;;;;47.50;39.25;;;;;9.58;48.98;101927.72;2393239;28;45476;-86
2022/03/02 05:23:02;;;;;;;;;54.75;40.50;;;;;9.56;49.52;101932.13;2392330;28;45360;-87
2022/03/02 05:24:12;;;;;;;;;51.25;39.00;;;;;9.57;49.84;101936.50;2383291;28;47070;-87
2022/03/02 05:25:24;;;;;;;;;50.00;40.00;;;;;9.53;48.90;101930.41;2385815;28;44751;-87